Time;durP1;ratioP1;P1;durP2;ratioP2;P2;SDS_P1;SDS_P2;PMS_P1;PMS_P2;Temp;Humidity;BMP_temperature;BMP_pressure;BME280_temperature;BME280_humidity;BME280_pressure;Samples;Min_cycle;Max_cycle;Signal;HPM_P1;HPM_P2
2023/01/12 00:01:21;;;;;;;5.68;5.18;;;;;;;-142.91;100.00;56616.03;4992662;28;20350;-75
2023/01/12 00:03:48;;;;;;;5.82;5.32;;;;;;;-142.91;100.00;56616.03;4990891;28;20208;-72
2023/01/12 00:06:15;;;;;;;5.47;5.07;;;;;;;-142.91;100.00;56616.03;4989789;28;20253;-71
2023/01/12 00:08:42;;;;;;;5.25;4.85;;;;;;;-142.91;100.00;56616.03;4992866;28;20310;-71
2023/01/12 00:11:09;;;;;;;5.78;5.28;;;;;;;-142.91;100.00;56616.03;4991086;28;20222;-70
2023/01/12 00:13:37;;;;;;;5.57;5.18;;;;;;;-142.91;100.00;56616.03;4990889;28;20199;-70
2023/01/12 00:18:50;;;;;;;5.18;4.78;;;;;;;-142.91;100.00;56616.03;4991021;28;20265;-73
2023/01/12 00:21:17;;;;;;;5.97;5.47;;;;;;;-142.91;100.00;56616.03;4987930;28;20218;-70
2023/01/12 00:23:44;;;;;;;5.13;4.72;;;;;;;-142.91;100.00;56616.03;4989400;28;20269;-70
2023/01/12 00:26:12;;;;;;;6.15;5.55;;;;;;;-142.91;100.00;56616.03;4989722;28;20289;-73
2023/01/12 00:28:40;;;;;;;6.28;5.72;;;;;;;-142.91;100.00;56616.03;4990017;28;20203;-71
2023/01/12 00:31:08;;;;;;;5.22;4.80;;;;;;;-142.91;100.00;56616.03;4987889;28;20212;-67
2023/01/12 00:33:36;;;;;;;5.05;4.70;;;;;;;-142.91;100.00;56616.03;4987447;28;20207;-68
2023/01/12 00:36:03;;;;;;;5.32;4.93;;;;;;;-142.91;100.00;56616.03;4989085;28;20210;-71
2023/01/12 00:38:32;;;;;;;5.47;5.07;;;;;;;-142.91;100.00;56616.03;4989193;28;20626;-72
2023/01/12 00:41:05;;;;;;;4.80;4.40;;;;;;;-142.91;100.00;56616.03;4990201;28;20204;-72
2023/01/12 00:46:17;;;;;;;5.27;4.87;;;;;;;-142.91;100.00;56616.03;4987175;28;20246;-68
2023/01/12 00:48:44;;;;;;;5.32;4.93;;;;;;;-142.91;100.00;56616.03;4988240;28;20226;-69
2023/01/12 00:51:11;;;;;;;5.97;5.40;;;;;;;-142.91;100.00;56616.03;4989262;28;21960;-67
2023/01/12 00:53:37;;;;;;;5.55;5.15;;;;;;;-142.91;100.00;56616.03;4986801;28;20747;-69
2023/01/12 00:56:05;;;;;;;6.78;6.15;;;;;;;-142.91;100.00;56616.03;4988747;28;20230;-69
2023/01/12 00:58:32;;;;;;;5.90;5.47;;;;;;;-142.91;100.00;56616.03;4989627;28;20723;-69
2023/01/12 01:01:04;;;;;;;6.32;5.72;;;;;;;-142.91;100.00;56616.03;4988147;28;20215;-71
2023/01/12 01:03:32;;;;;;;5.63;5.22;;;;;;;-142.91;100.00;56616.03;4989380;28;20263;-68
2023/01/12 01:06:03;;;;;;;6.40;5.80;;;;;;;-142.91;100.00;56616.03;4989162;28;20205;-71
2023/01/12 01:08:30;;;;;;;6.82;6.22;;;;;;;-142.91;100.00;56616.03;4988959;28;20277;-67
2023/01/12 01:11:04;;;;;;;5.68;5.28;;;;;;;-142.91;100.00;56616.03;4987350;28;20204;-71
2023/01/12 01:13:31;;;;;;;7.07;5.95;;;;;;;-142.91;100.00;56616.03;4987326;28;20235;-68
2023/01/12 01:15:59;;;;;;;6.55;5.95;;;;;;;-142.91;100.00;56616.03;4990743;28;20203;-70
2023/01/12 01:18:27;;;;;;;6.50;5.90;;;;;;;-142.91;100.00;56616.03;4988986;28;20798;-69
2023/01/12 01:20:55;;;;;;;6.30;5.70;;;;;;;-142.91;100.00;56616.03;4991433;28;22821;-71
2023/01/12 01:23:23;;;;;;;6.13;5.63;;;;;;;-142.91;100.00;56616.03;4992792;28;20208;-70
2023/01/12 01:25:50;;;;;;;6.22;5.63;;;;;;;-142.91;100.00;56616.03;4993423;28;20207;-68
2023/01/12 01:28:17;;;;;;;6.55;5.97;;;;;;;-142.91;100.00;56616.03;4990582;28;20748;-73
2023/01/12 01:30:44;;;;;;;5.63;5.13;;;;;;;-142.91;100.00;56616.03;4989571;28;20269;-70
2023/01/12 01:33:12;;;;;;;6.35;5.85;;;;;;;-142.91;100.00;56616.03;4989901;28;20219;-70
2023/01/12 01:35:39;;;;;;;6.22;5.63;;;;;;;-142.91;100.00;56616.03;4989114;28;20211;-70
2023/01/12 01:38:07;;;;;;;6.57;5.97;;;;;;;-142.91;100.00;56616.03;4987758;28;21919;-72
2023/01/12 01:40:34;;;;;;;5.43;5.03;;;;;;;-142.91;100.00;56616.03;4989396;28;20247;-70
2023/01/12 01:43:01;;;;;;;6.57;5.93;;;;;;;-142.91;100.00;56616.03;4988597;28;20624;-70
2023/01/12 01:45:28;;;;;;;5.60;5.20;;;;;;;-142.91;100.00;56616.03;4987264;28;20210;-72
2023/01/12 01:47:58;;;;;;;5.72;5.22;;;;;;;-142.91;100.00;56616.03;4993816;28;20427;-69
2023/01/12 01:50:30;;;;;;;5.88;5.38;;;;;;;-142.91;100.00;56616.03;4994864;28;20207;-71
2023/01/12 01:53:03;;;;;;;6.25;5.75;;;;;;;-142.91;100.00;56616.03;4994318;28;20704;-71
2023/01/12 01:55:34;;;;;;;6.47;5.88;;;;;;;-142.91;100.00;56616.03;4993937;28;20684;-72
2023/01/12 01:58:06;;;;;;;5.75;5.35;;;;;;;-142.91;100.00;56616.03;4993884;28;20210;-71
2023/01/12 02:00:33;;;;;;;6.57;5.60;;;;;;;-142.91;100.00;56616.03;4996950;28;20216;-72
2023/01/12 02:03:03;;;;;;;5.95;5.45;;;;;;;-142.91;100.00;56616.03;4994660;28;20438;-72
2023/01/12 02:05:30;;;;;;;5.95;5.43;;;;;;;-142.91;100.00;56616.03;4994327;28;20604;-70
2023/01/12 02:08:04;;;;;;;6.75;6.15;;;;;;;-142.91;100.00;56616.03;4995232;28;20277;-69
2023/01/12 02:10:32;;;;;;;5.55;5.07;;;;;;;-142.91;100.00;56616.03;4995640;28;20203;-70
2023/01/12 02:18:44;;;;;;;6.43;5.82;;;;;;;-142.91;100.00;56616.03;4994477;28;20234;-70
2023/01/12 02:21:33;;;;;;;6.13;5.63;;;;;;;-142.91;100.00;56616.03;4995404;28;20627;-71
2023/01/12 02:24:33;;;;;;;7.07;6.38;;;;;;;-142.91;100.00;56616.03;4995949;28;20211;-71
2023/01/12 02:27:28;;;;;;;5.75;5.35;;;;;;;-142.91;100.00;56616.03;4994832;28;20626;-71
2023/01/12 02:30:37;;;;;;;6.38;5.88;;;;;;;-142.91;100.00;56616.03;4994033;28;20202;-70
2023/01/12 02:33:20;;;;;;;9.00;6.00;;;;;;;-142.91;100.00;56616.03;4995429;28;20298;-68
2023/01/12 02:35:55;;;;;;;7.05;6.28;;;;;;;-142.91;100.00;56616.03;4995717;28;20203;-69
2023/01/12 02:38:32;;;;;;;6.72;6.03;;;;;;;-142.91;100.00;56616.03;4993467;28;21637;-68
2023/01/12 02:41:09;;;;;;;6.80;6.20;;;;;;;-142.91;100.00;56616.03;4995299;28;20769;-71
2023/01/12 02:43:38;;;;;;;7.88;6.45;;;;;;;-142.91;100.00;56616.03;4994418;28;20199;-70
2023/01/12 02:46:13;;;;;;;7.05;5.75;;;;;;;-142.91;100.00;56616.03;4995829;28;20676;-70
2023/01/12 02:48:46;;;;;;;7.05;5.40;;;;;;;-142.91;100.00;56616.03;4994894;28;20226;-70
2023/01/12 02:51:19;;;;;;;5.72;5.13;;;;;;;-142.91;100.00;56616.03;4994130;28;20322;-71
2023/01/12 02:53:49;;;;;;;7.00;6.40;;;;;;;-142.91;100.00;56616.03;4996078;28;20654;-70
2023/01/12 02:56:21;;;;;;;6.15;5.55;;;;;;;-142.91;100.00;56616.03;4994158;28;20676;-69
2023/01/12 02:58:53;;;;;;;6.57;5.40;;;;;;;-142.91;100.00;56616.03;4992492;28;20590;-71
2023/01/12 03:01:22;;;;;;;5.67;5.17;;;;;;;-142.91;100.00;56616.03;4994663;28;20999;-70
2023/01/12 03:03:52;;;;;;;6.23;5.63;;;;;;;-142.91;100.00;56616.03;4994211;28;20212;-69
2023/01/12 03:06:19;;;;;;;5.32;4.82;;;;;;;-142.91;100.00;56616.03;4992610;28;20204;-72
2023/01/12 03:08:49;;;;;;;6.22;5.70;;;;;;;-142.91;100.00;56616.03;4992603;28;21987;-71
2023/01/12 03:11:18;;;;;;;5.97;5.47;;;;;;;-142.91;100.00;56616.03;4991944;28;20596;-69
2023/01/12 03:13:49;;;;;;;5.70;5.30;;;;;;;-142.91;100.00;56616.03;4992259;28;20218;-72
2023/01/12 03:16:20;;;;;;;5.80;5.30;;;;;;;-142.91;100.00;56616.03;4992929;28;20200;-72
2023/01/12 03:18:53;;;;;;;6.17;5.67;;;;;;;-142.91;100.00;56616.03;4991719;28;20742;-71
2023/01/12 03:21:26;;;;;;;5.10;4.45;;;;;;;-142.91;100.00;56616.03;4993591;28;20281;-71
2023/01/12 03:23:59;;;;;;;6.00;5.50;;;;;;;-142.91;100.00;56616.03;4992127;28;20208;-70
2023/01/12 03:26:28;;;;;;;5.35;4.85;;;;;;;-142.91;100.00;56616.03;4992826;28;20266;-70
2023/01/12 03:29:02;;;;;;;5.70;5.30;;;;;;;-142.91;100.00;56616.03;4990867;28;20199;-70
2023/01/12 03:31:29;;;;;;;5.78;5.28;;;;;;;-142.91;100.00;56616.03;4993117;28;20273;-69
2023/01/12 03:33:59;;;;;;;6.10;5.50;;;;;;;-142.91;100.00;56616.03;4989669;28;20219;-71
2023/01/12 03:36:37;;;;;;;6.10;5.50;;;;;;;-142.91;100.00;56616.03;4991218;28;20208;-69
2023/01/12 03:39:14;;;;;;;6.22;5.63;;;;;;;-142.91;100.00;56616.03;4991133;28;20747;-70
2023/01/12 03:41:51;;;;;;;6.85;6.22;;;;;;;-142.91;100.00;56616.03;4990103;28;20234;-70
2023/01/12 03:44:27;;;;;;;5.90;5.40;;;;;;;-142.91;100.00;56616.03;4991063;28;20215;-70
2023/01/12 03:46:58;;;;;;;6.32;5.72;;;;;;;-142.91;100.00;56616.03;4990278;28;20211;-70
2023/01/12 03:49:32;;;;;;;6.85;5.93;;;;;;;-142.91;100.00;56616.03;4989982;28;20689;-69
2023/01/12 03:52:02;;;;;;;6.43;5.80;;;;;;;-142.91;100.00;56616.03;4989755;28;20581;-70
2023/01/12 03:54:30;;;;;;;7.27;6.03;;;;;;;-142.91;100.00;56616.03;4989493;28;20208;-70
2023/01/12 03:56:58;;;;;;;6.10;5.60;;;;;;;-142.91;100.00;56616.03;4988100;28;20210;-71
2023/01/12 03:59:25;;;;;;;6.00;5.50;;;;;;;-142.91;100.00;56616.03;4990653;28;20231;-71
2023/01/12 04:01:52;;;;;;;6.37;5.57;;;;;;;-142.91;100.00;56616.03;4991002;28;20204;-70
2023/01/12 04:04:19;;;;;;;6.75;6.15;;;;;;;-142.91;100.00;56616.03;4991648;28;20212;-67
2023/01/12 04:06:47;;;;;;;5.72;5.32;;;;;;;-142.91;100.00;56616.03;4989652;28;20770;-72
2023/01/12 04:09:14;;;;;;;6.53;5.93;;;;;;;-142.91;100.00;56616.03;4990038;28;20193;-70
2023/01/12 04:14:25;;;;;;;6.10;5.50;;;;;;;-142.91;100.00;56616.03;4993795;28;20211;-69
2023/01/12 04:16:52;;;;;;;5.82;5.28;;;;;;;-142.91;100.00;56616.03;4989220;28;20199;-70
2023/01/12 04:19:19;;;;;;;6.10;5.60;;;;;;;-142.91;100.00;56616.03;4991444;28;20661;-69
2023/01/12 04:24:31;;;;;;;5.90;5.40;;;;;;;-142.91;100.00;56616.03;4990854;28;20214;-69
2023/01/12 04:26:58;;;;;;;5.43;4.93;;;;;;;-142.91;100.00;56616.03;4989995;28;20566;-70
2023/01/12 04:29:24;;;;;;;5.60;5.10;;;;;;;-142.91;100.00;56616.03;4989707;28;20294;-71
2023/01/12 04:31:51;;;;;;;5.57;5.07;;;;;;;-142.91;100.00;56616.03;4989742;28;20705;-70
2023/01/12 04:34:18;;;;;;;5.72;5.22;;;;;;;-142.91;100.00;56616.03;4991241;28;20654;-71
2023/01/12 04:36:46;;;;;;;5.53;5.13;;;;;;;-142.91;100.00;56616.03;4990669;28;20891;-69
2023/01/12 04:39:13;;;;;;;5.32;4.93;;;;;;;-142.91;100.00;56616.03;4988130;28;20314;-71
2023/01/12 04:41:40;;;;;;;5.07;4.68;;;;;;;-142.91;100.00;56616.03;4989532;28;20479;-71
2023/01/12 04:44:07;;;;;;;6.00;5.50;;;;;;;-142.91;100.00;56616.03;4989487;28;20211;-69
2023/01/12 04:46:34;;;;;;;6.50;5.90;;;;;;;-142.91;100.00;56616.03;4990492;28;20685;-71
2023/01/12 04:49:00;;;;;;;6.30;5.70;;;;;;;-142.91;100.00;56616.03;4989118;28;20289;-72
2023/01/12 04:51:27;;;;;;;6.22;5.47;;;;;;;-142.91;100.00;56616.03;4989021;28;20207;-69
2023/01/12 04:53:55;;;;;;;6.18;5.68;;;;;;;-142.91;100.00;56616.03;4992745;28;20206;-70
2023/01/12 04:56:22;;;;;;;10.27;8.02;;;;;;;-142.91;100.00;56616.03;4991898;28;20211;-70
2023/01/12 04:58:49;;;;;;;11.43;8.17;;;;;;;-142.91;100.00;56616.03;4988973;28;20211;-71
2023/01/12 05:01:17;;;;;;;9.83;8.03;;;;;;;-142.91;100.00;56616.03;4988736;28;20212;-69
2023/01/12 05:03:45;;;;;;;8.93;6.20;;;;;;;-142.91;100.00;56616.03;4989070;28;20649;-73
2023/01/12 05:06:12;;;;;;;11.88;8.63;;;;;;;-142.91;100.00;56616.03;4988516;28;20290;-69
2023/01/12 05:11:28;;;;;;;7.28;6.18;;;;;;;-142.91;100.00;56616.03;4989676;28;20203;-69
2023/01/12 05:13:55;;;;;;;7.82;6.95;;;;;;;-142.91;100.00;56616.03;4987829;28;20322;-71
2023/01/12 05:16:22;;;;;;;8.27;6.40;;;;;;;-142.91;100.00;56616.03;4988902;28;20202;-70
2023/01/12 05:18:49;;;;;;;7.32;6.63;;;;;;;-142.91;100.00;56616.03;4988434;28;20229;-71
2023/01/12 05:21:17;;;;;;;7.10;6.32;;;;;;;-142.91;100.00;56616.03;4988058;28;20222;-69
2023/01/12 05:23:44;;;;;;;8.45;6.70;;;;;;;-142.91;100.00;56616.03;4989595;28;20433;-71
2023/01/12 05:26:12;;;;;;;7.03;5.97;;;;;;;-142.91;100.00;56616.03;4990256;28;21225;-69
2023/01/12 05:28:41;;;;;;;6.93;5.50;;;;;;;-142.91;100.00;56616.03;4988253;28;20207;-69
2023/01/12 05:31:09;;;;;;;7.37;6.50;;;;;;;-142.91;100.00;56616.03;4990759;28;22694;-69
2023/01/12 05:33:37;;;;;;;10.55;6.63;;;;;;;-142.91;100.00;56616.03;4988461;28;20266;-69
2023/01/12 05:36:05;;;;;;;8.65;6.72;;;;;;;-142.91;100.00;56616.03;4987983;28;20222;-69
2023/01/12 05:38:32;;;;;;;7.63;6.10;;;;;;;-142.91;100.00;56616.03;4987729;28;20235;-69
2023/01/12 05:40:59;;;;;;;7.13;6.47;;;;;;;-142.91;100.00;56616.03;4989349;28;20297;-70
2023/01/12 05:46:12;;;;;;;9.20;7.07;;;;;;;-142.91;100.00;56616.03;4989501;28;20219;-74
2023/01/12 05:48:39;;;;;;;8.50;6.97;;;;;;;-142.91;100.00;56616.03;4987898;28;20204;-71
2023/01/12 05:51:08;;;;;;;10.93;7.13;;;;;;;-142.91;100.00;56616.03;4988022;28;20207;-70
2023/01/12 05:53:35;;;;;;;7.55;6.75;;;;;;;-142.91;100.00;56616.03;4990250;28;20855;-69
2023/01/12 05:56:07;;;;;;;6.50;5.72;;;;;;;-142.91;100.00;56616.03;4989391;28;20219;-72
2023/01/12 05:58:33;;;;;;;7.63;6.50;;;;;;;-142.91;100.00;56616.03;4990752;28;20207;-71
2023/01/12 06:01:00;;;;;;;8.50;6.93;;;;;;;-142.91;100.00;56616.03;4988768;28;21422;-70
2023/01/12 06:03:28;;;;;;;8.52;6.55;;;;;;;-142.91;100.00;56616.03;4987195;28;20207;-70
2023/01/12 06:05:57;;;;;;;8.25;7.43;;;;;;;-142.91;100.00;56616.03;4990158;28;20257;-72
2023/01/12 06:08:24;;;;;;;7.18;6.03;;;;;;;-142.91;100.00;56616.03;4988407;28;20455;-69
2023/01/12 06:10:51;;;;;;;9.13;6.97;;;;;;;-142.91;100.00;56616.03;4989872;28;20302;-71
2023/01/12 06:16:04;;;;;;;8.70;6.38;;;;;;;-142.91;100.00;56616.03;4988598;28;20238;-68
2023/01/12 06:18:34;;;;;;;8.73;7.18;;;;;;;-142.91;100.00;56616.03;4988326;28;20200;-69
2023/01/12 06:21:02;;;;;;;8.43;7.45;;;;;;;-142.91;100.00;56616.03;4988347;28;20731;-71
2023/01/12 06:23:29;;;;;;;9.70;7.07;;;;;;;-142.91;100.00;56616.03;4987638;28;20350;-69
2023/01/12 06:25:56;;;;;;;14.00;8.27;;;;;;;-142.91;100.00;56616.03;4989310;28;20305;-70
2023/01/12 06:28:23;;;;;;;9.60;8.03;;;;;;;-142.91;100.00;56616.03;4988858;28;20239;-73
2023/01/12 06:30:56;;;;;;;8.85;7.53;;;;;;;-142.91;100.00;56616.03;4988112;28;20203;-71
2023/01/12 06:33:23;;;;;;;10.45;8.18;;;;;;;-142.91;100.00;56616.03;4990780;28;20711;-69
2023/01/12 06:35:51;;;;;;;8.73;7.78;;;;;;;-142.91;100.00;56616.03;4991761;28;20354;-70
2023/01/12 06:38:19;;;;;;;9.68;8.25;;;;;;;-142.91;100.00;56616.03;4992155;28;20262;-71
2023/01/12 06:40:45;;;;;;;9.65;7.28;;;;;;;-142.91;100.00;56616.03;4991903;28;21096;-71
2023/01/12 06:43:11;;;;;;;9.02;7.45;;;;;;;-142.91;100.00;56616.03;4991115;28;20294;-70
2023/01/12 06:45:38;;;;;;;10.32;7.78;;;;;;;-142.91;100.00;56616.03;4991169;28;20277;-69
2023/01/12 06:48:05;;;;;;;8.98;8.00;;;;;;;-142.91;100.00;56616.03;4991812;28;20338;-69
2023/01/12 06:50:32;;;;;;;11.60;7.80;;;;;;;-142.91;100.00;56616.03;4991011;28;20227;-72
2023/01/12 06:53:01;;;;;;;9.30;6.53;;;;;;;-142.91;100.00;56616.03;4991329;28;20261;-71
2023/01/12 06:55:27;;;;;;;10.40;7.60;;;;;;;-142.91;100.00;56616.03;4990978;28;20231;-70
2023/01/12 06:57:54;;;;;;;7.30;6.60;;;;;;;-142.91;100.00;56616.03;4990344;28;20243;-73
2023/01/12 07:00:21;;;;;;;8.60;6.97;;;;;;;-142.91;100.00;56616.03;4990804;28;20323;-70
2023/01/12 07:02:50;;;;;;;7.65;6.93;;;;;;;-142.91;100.00;56616.03;4991517;28;20239;-71
2023/01/12 07:05:17;;;;;;;7.63;6.85;;;;;;;-142.91;100.00;56616.03;4990552;28;20199;-69
2023/01/12 07:07:44;;;;;;;7.85;6.22;;;;;;;-142.91;100.00;56616.03;4991058;28;20581;-69
2023/01/12 07:10:13;;;;;;;9.85;6.88;;;;;;;-142.91;100.00;56616.03;4991868;28;20203;-70
2023/01/12 07:12:40;;;;;;;11.50;7.60;;;;;;;-142.91;100.00;56616.03;4991071;28;20679;-71
2023/01/12 07:15:08;;;;;;;9.48;7.80;;;;;;;-142.91;100.00;56616.03;4991425;28;20211;-73
2023/01/12 07:17:34;;;;;;;9.43;6.07;;;;;;;-142.91;100.00;56616.03;4991052;28;20276;-70
2023/01/12 07:20:01;;;;;;;8.98;7.10;;;;;;;-142.91;100.00;56616.03;4991414;28;20310;-70
2023/01/12 07:22:29;;;;;;;8.23;6.68;;;;;;;-142.91;100.00;56616.03;4990854;28;20331;-73
2023/01/12 07:24:55;;;;;;;7.53;6.72;;;;;;;-142.91;100.00;56616.03;4991417;28;20759;-69
2023/01/12 07:27:23;;;;;;;11.20;7.13;;;;;;;-142.91;100.00;56616.03;4990744;28;20737;-70
2023/01/12 07:29:50;;;;;;;13.48;7.00;;;;;;;-142.91;100.00;56616.03;4990009;28;20865;-71
2023/01/12 07:32:17;;;;;;;6.75;6.15;;;;;;;-142.91;100.00;56616.03;4989996;28;20294;-71
2023/01/12 07:34:44;;;;;;;6.95;6.35;;;;;;;-142.91;100.00;56616.03;4991916;28;20361;-72
2023/01/12 07:37:11;;;;;;;7.45;6.18;;;;;;;-142.91;100.00;56616.03;4989538;28;20604;-70
2023/01/12 07:39:38;;;;;;;6.25;5.57;;;;;;;-142.91;100.00;56616.03;4992136;28;20460;-69
2023/01/12 07:42:23;;;;;;;6.75;6.07;;;;;;;-142.91;100.00;56616.03;4989843;28;20290;-71
2023/01/12 07:44:51;;;;;;;10.10;5.85;;;;;;;-142.91;100.00;56616.03;4989021;28;20219;-73
2023/01/12 07:47:18;;;;;;;7.78;5.88;;;;;;;-142.91;100.00;56616.03;4989746;28;20317;-69
2023/01/12 07:49:44;;;;;;;7.25;5.80;;;;;;;-142.91;100.00;56616.03;4990646;28;20236;-71
2023/01/12 07:52:12;;;;;;;6.80;5.97;;;;;;;-142.91;100.00;56616.03;4991527;28;20238;-70
2023/01/12 07:54:38;;;;;;;7.65;6.00;;;;;;;-142.91;100.00;56616.03;4990517;28;20291;-71
2023/01/12 07:57:08;;;;;;;7.10;6.05;;;;;;;-142.91;100.00;56616.03;4989606;28;20298;-73
2023/01/12 07:59:35;;;;;;;12.85;7.75;;;;;;;-142.91;100.00;56616.03;4989310;28;20262;-70
2023/01/12 08:02:03;;;;;;;14.70;8.93;;;;;;;-142.91;100.00;56616.03;4989742;28;20207;-72
2023/01/12 08:04:30;;;;;;;13.93;8.00;;;;;;;-142.91;100.00;56616.03;4991554;28;20302;-74
2023/01/12 08:06:57;;;;;;;9.60;6.55;;;;;;;-142.91;100.00;56616.03;4990467;28;20298;-71
2023/01/12 08:09:24;;;;;;;7.40;5.80;;;;;;;-142.91;100.00;56616.03;4990490;28;20218;-70
2023/01/12 08:11:50;;;;;;;5.20;4.70;;;;;;;-142.91;100.00;56616.03;4989298;28;20250;-71
2023/01/12 08:14:26;;;;;;;12.73;5.32;;;;;;;-142.91;100.00;56616.03;4991326;28;20327;-71
2023/01/12 08:16:55;;;;;;;5.88;4.70;;;;;;;-142.91;100.00;56616.03;4989250;28;21063;-71
2023/01/12 08:19:27;;;;;;;5.38;3.95;;;;;;;-142.91;100.00;56616.03;4989992;28;20567;-70
2023/01/12 08:21:58;;;;;;;5.35;4.20;;;;;;;-142.91;100.00;56616.03;4989104;28;20752;-70
2023/01/12 08:24:31;;;;;;;4.25;3.95;;;;;;;-142.91;100.00;56616.03;4989970;28;20232;-71
2023/01/12 08:27:00;;;;;;;4.63;4.20;;;;;;;-142.91;100.00;56616.03;4989810;28;20208;-73
2023/01/12 08:29:32;;;;;;;3.85;3.55;;;;;;;-142.91;100.00;56616.03;4989132;28;20239;-71
2023/01/12 08:32:02;;;;;;;3.85;3.63;;;;;;;-142.91;100.00;56616.03;4989738;28;20685;-70
2023/01/12 08:34:45;;;;;;;3.70;3.15;;;;;;;-142.91;100.00;56616.03;4990280;28;20528;-72
2023/01/12 08:37:15;;;;;;;3.05;2.85;;;;;;;-142.91;100.00;56616.03;4989847;28;20845;-72
2023/01/12 08:39:42;;;;;;;2.72;2.53;;;;;;;-142.91;100.00;56616.03;4988479;28;20373;-73
2023/01/12 08:42:09;;;;;;;2.65;2.45;;;;;;;-142.91;100.00;56616.03;4989547;28;20227;-71
2023/01/12 08:44:35;;;;;;;2.50;2.33;;;;;;;-142.91;100.00;56616.03;4989756;28;20265;-70
2023/01/12 08:47:03;;;;;;;3.00;2.80;;;;;;;-142.91;100.00;56616.03;4988797;28;20292;-73
2023/01/12 08:49:31;;;;;;;2.55;2.35;;;;;;;-142.91;100.00;56616.03;4988601;28;20266;-71
2023/01/12 08:51:59;;;;;;;2.88;2.67;;;;;;;-142.91;100.00;56616.03;4987550;28;20231;-70
2023/01/12 08:54:26;;;;;;;3.47;2.72;;;;;;;-142.91;100.00;56616.03;4990036;28;22043;-71
2023/01/12 08:56:53;;;;;;;3.33;3.05;;;;;;;-142.91;100.00;56616.03;4989840;28;20306;-71
2023/01/12 08:59:20;;;;;;;3.38;2.33;;;;;;;-142.91;100.00;56616.03;4987116;28;20207;-69
2023/01/12 09:01:47;;;;;;;2.83;2.63;;;;;;;-142.91;100.00;56616.03;4988072;28;20876;-70
2023/01/12 09:04:14;;;;;;;3.17;2.80;;;;;;;-142.91;100.00;56616.03;4989904;28;20782;-71
2023/01/12 09:06:42;;;;;;;2.53;2.35;;;;;;;-142.91;100.00;56616.03;4989297;28;20698;-71
2023/01/12 09:09:13;;;;;;;3.42;3.13;;;;;;;-142.91;100.00;56616.03;4988824;28;20294;-70
2023/01/12 09:11:41;;;;;;;3.13;2.92;;;;;;;-142.91;100.00;56616.03;4989802;28;20234;-71
2023/01/12 09:14:09;;;;;;;2.90;2.70;;;;;;;-142.91;100.00;56616.03;4989686;28;20350;-70
2023/01/12 09:16:36;;;;;;;2.90;2.70;;;;;;;-142.91;100.00;56616.03;4990535;28;20211;-71
2023/01/12 09:19:03;;;;;;;3.17;2.85;;;;;;;-142.91;100.00;56616.03;4986915;28;20704;-70
2023/01/12 09:21:31;;;;;;;4.32;2.92;;;;;;;-142.91;100.00;56616.03;4988791;28;20318;-69
2023/01/12 09:23:58;;;;;;;2.63;2.42;;;;;;;-142.91;100.00;56616.03;4987845;28;20295;-71
2023/01/12 09:26:30;;;;;;;4.03;3.63;;;;;;;-142.91;100.00;56616.03;4990552;28;20203;-71
2023/01/12 09:28:58;;;;;;;3.50;3.20;;;;;;;-142.91;100.00;56616.03;4988481;28;20236;-68
2023/01/12 09:31:26;;;;;;;10.57;3.00;;;;;;;-142.91;100.00;56616.03;4990498;28;20200;-71
2023/01/12 09:33:53;;;;;;;8.43;3.75;;;;;;;-142.91;100.00;56616.03;4989213;28;20239;-70
2023/01/12 09:36:22;;;;;;;9.63;3.67;;;;;;;-142.91;100.00;56616.03;4988795;28;20827;-70
2023/01/12 09:38:50;;;;;;;5.80;3.13;;;;;;;-142.91;100.00;56616.03;4987604;28;20227;-70
2023/01/12 09:46:57;;;;;;;2.85;2.63;;;;;;;-142.91;100.00;56616.03;4989188;28;20231;-70
2023/01/12 09:47:02;;;;;;;4.78;3.47;;;;;;;-142.91;100.00;56616.03;4987812;28;20626;-72
2023/01/12 09:49:33;;;;;;;5.20;3.05;;;;;;;-142.91;100.00;56616.03;4987972;28;20686;-70
2023/01/12 09:52:16;;;;;;;4.55;3.42;;;;;;;-142.91;100.00;56616.03;4987326;28;20290;-73
2023/01/12 09:54:43;;;;;;;8.90;3.35;;;;;;;-142.91;100.00;56616.03;4988750;28;20257;-69
2023/01/12 09:57:42;;;;;;;5.05;4.15;;;;;;;-142.91;100.00;56616.03;4990384;28;20199;-71
2023/01/12 10:00:13;;;;;;;4.13;3.63;;;;;;;-142.91;100.00;56616.03;4988854;28;20261;-69
2023/01/12 10:02:43;;;;;;;4.40;3.75;;;;;;;-142.91;100.00;56616.03;4987695;28;20669;-75
2023/01/12 10:05:18;;;;;;;6.82;3.90;;;;;;;-142.91;100.00;56616.03;4989425;28;20211;-71
2023/01/12 10:07:45;;;;;;;4.28;3.97;;;;;;;-142.91;100.00;56616.03;4989087;28;20306;-71
2023/01/12 10:10:15;;;;;;;4.65;3.50;;;;;;;-142.91;100.00;56616.03;4992118;28;20207;-71
2023/01/12 10:12:49;;;;;;;5.72;2.80;;;;;;;-142.91;100.00;56616.03;4991196;28;20719;-72
2023/01/12 10:15:40;;;;;;;6.97;4.13;;;;;;;-142.91;100.00;56616.03;4992627;28;20207;-71
2023/01/12 10:18:16;;;;;;;3.05;2.80;;;;;;;-142.91;100.00;56616.03;4993202;28;20218;-73
2023/01/12 10:20:44;;;;;;;3.03;2.33;;;;;;;-142.91;100.00;56616.03;4990397;28;20216;-71
2023/01/12 10:23:15;;;;;;;4.00;2.67;;;;;;;-142.91;100.00;56616.03;4991111;28;20215;-71
2023/01/12 10:25:45;;;;;;;7.90;2.35;;;;;;;-142.91;100.00;56616.03;4991918;28;20596;-71
2023/01/12 10:28:17;;;;;;;6.28;3.13;;;;;;;-142.91;100.00;56616.03;4990442;28;20651;-74
2023/01/12 10:30:46;;;;;;;2.80;2.60;;;;;;;-142.91;100.00;56616.03;4989165;28;20223;-73
2023/01/12 10:33:16;;;;;;;3.65;3.05;;;;;;;-142.91;100.00;56616.03;4990570;28;20870;-70
2023/01/12 10:35:52;;;;;;;3.13;2.92;;;;;;;-142.91;100.00;56616.03;4987973;28;20203;-73
2023/01/12 10:38:26;;;;;;;5.18;2.90;;;;;;;-142.91;100.00;56616.03;4989195;28;20207;-74
2023/01/12 10:41:04;;;;;;;2.60;2.40;;;;;;;-142.91;100.00;56616.03;4990451;28;20326;-72
2023/01/12 10:43:32;;;;;;;3.20;2.78;;;;;;;-142.91;100.00;56616.03;4991441;28;20215;-72
2023/01/12 10:46:08;;;;;;;5.30;2.83;;;;;;;-142.91;100.00;56616.03;4994101;28;20200;-71
2023/01/12 10:48:37;;;;;;;3.10;2.40;;;;;;;-142.91;100.00;56616.03;4991839;28;20210;-73
2023/01/12 10:51:06;;;;;;;5.00;3.05;;;;;;;-142.91;100.00;56616.03;4993581;28;20253;-72
2023/01/12 10:53:41;;;;;;;3.33;3.13;;;;;;;-142.91;100.00;56616.03;4991640;28;20211;-68
2023/01/12 10:56:13;;;;;;;5.78;2.70;;;;;;;-142.91;100.00;56616.03;4993490;28;20591;-71
2023/01/12 10:58:41;;;;;;;3.05;2.85;;;;;;;-142.91;100.00;56616.03;4990919;28;20203;-71
2023/01/12 11:01:13;;;;;;;4.47;3.42;;;;;;;-142.91;100.00;56616.03;4991077;28;20810;-71
2023/01/12 11:03:41;;;;;;;2.55;2.35;;;;;;;-142.91;100.00;56616.03;4966373;28;20214;-71
2023/01/12 11:06:16;;;;;;;5.85;2.50;;;;;;;-142.91;100.00;56616.03;4992612;28;20295;-73
2023/01/12 11:08:43;;;;;;;2.90;2.70;;;;;;;-142.91;100.00;56616.03;4992052;28;20211;-71
2023/01/12 11:11:27;;;;;;;5.63;3.60;;;;;;;-142.91;100.00;56616.03;4992141;28;20204;-71
2023/01/12 11:13:56;;;;;;;3.45;3.15;;;;;;;-142.91;100.00;56616.03;4990698;28;20250;-72
2023/01/12 11:16:26;;;;;;;2.88;2.60;;;;;;;-142.91;100.00;56616.03;4993660;28;20781;-74
2023/01/12 11:19:10;;;;;;;7.30;3.33;;;;;;;-142.91;100.00;56616.03;4991388;28;20215;-72
2023/01/12 11:21:40;;;;;;;2.83;2.58;;;;;;;-142.91;100.00;56616.03;4992154;28;20728;-72
2023/01/12 11:24:16;;;;;;;3.03;2.83;;;;;;;-142.91;100.00;56616.03;4990710;28;20222;-72
2023/01/12 11:26:49;;;;;;;2.08;1.98;;;;;;;-142.91;100.00;56616.03;4992242;28;20199;-72
2023/01/12 11:29:38;;;;;;;2.70;2.58;;;;;;;-142.91;100.00;56616.03;4991330;28;20231;-70
2023/01/12 11:32:14;;;;;;;4.15;2.83;;;;;;;-142.91;100.00;56616.03;4990626;28;20246;-70
2023/01/12 11:34:54;;;;;;;4.35;2.75;;;;;;;-142.91;100.00;56616.03;4990918;28;21068;-72
2023/01/12 11:37:21;;;;;;;2.67;2.50;;;;;;;-142.91;100.00;56616.03;4990782;28;20265;-72
2023/01/12 11:39:52;;;;;;;2.45;2.20;;;;;;;-142.91;100.00;56616.03;4991426;28;20243;-71
2023/01/12 11:45:13;;;;;;;4.70;2.80;;;;;;;-142.91;100.00;56616.03;4991876;28;20206;-72
2023/01/12 11:47:47;;;;;;;2.42;2.30;;;;;;;-142.91;100.00;56616.03;4993205;28;20207;-72
2023/01/12 11:50:17;;;;;;;5.47;2.05;;;;;;;-142.91;100.00;56616.03;4991760;28;20215;-69
2023/01/12 11:52:45;;;;;;;2.42;2.33;;;;;;;-142.91;100.00;56616.03;4990162;28;20330;-70